Time;durP1;ratioP1;P1;durP2;ratioP2;P2;SDS_P1;SDS_P2;PMS_P1;PMS_P2;Temp;Humidity;BMP_temperature;BMP_pressure;BME280_temperature;BME280_humidity;BME280_pressure;Samples;Min_cycle;Max_cycle;Signal;HPM_P1;HPM_P2
2024/01/26 00:00:47;;;;;;;1.67;1.53;;;6.50;99.90;;;;;;2059980;28;20229;-62
2024/01/26 00:01:48;;;;;;;2.67;1.97;;;6.50;99.90;;;;;;2071049;28;20244;-63
2024/01/26 00:02:49;;;;;;;2.70;1.77;;;6.60;99.90;;;;;;2070829;28;20227;-64
2024/01/26 00:03:51;;;;;;;2.23;1.40;;;6.60;99.90;;;;;;2061246;28;20226;-64
2024/01/26 00:04:51;;;;;;;2.22;1.60;;;6.60;99.90;;;;;;2062192;28;20594;-64
2024/01/26 00:05:53;;;;;;;2.20;1.50;;;6.70;99.90;;;;;;2070996;28;20241;-64
2024/01/26 00:06:54;;;;;;;1.50;1.30;;;6.70;99.90;;;;;;2070998;28;20279;-63
2024/01/26 00:07:55;;;;;;;1.40;1.30;;;6.60;99.90;;;;;;2070922;28;20269;-63
2024/01/26 00:08:56;;;;;;;1.10;1.00;;;6.60;99.90;;;;;;2071078;28;20309;-63
2024/01/26 00:09:57;;;;;;;1.10;1.00;;;6.60;99.90;;;;;;2070305;28;20597;-64
2024/01/26 00:10:57;;;;;;;2.60;1.10;;;6.60;99.90;;;;;;2070861;28;20677;-64
2024/01/26 00:11:58;;;;;;;1.73;1.10;;;6.60;99.90;;;;;;2071003;28;20237;-64
2024/01/26 00:12:59;;;;;;;1.50;1.37;;;6.50;99.90;;;;;;2062917;28;20221;-64
2024/01/26 00:13:59;;;;;;;1.47;1.23;;;6.50;99.90;;;;;;2061263;28;20246;-63
2024/01/26 00:15:00;;;;;;;1.00;0.90;;;6.50;99.90;;;;;;2062797;28;20305;-63
2024/01/26 00:16:01;;;;;;;1.40;1.10;;;6.50;99.90;;;;;;2060722;28;20302;-63
2024/01/26 00:17:02;;;;;;;1.47;1.23;;;6.50;99.90;;;;;;2069310;28;20188;-63
2024/01/26 00:18:03;;;;;;;1.17;1.07;;;6.60;99.90;;;;;;2070854;28;20203;-64
2024/01/26 00:19:05;;;;;;;1.27;1.10;;;6.70;99.90;;;;;;2070813;28;20423;-62
2024/01/26 00:20:06;;;;;;;1.20;1.08;;;6.70;99.90;;;;;;2071314;28;20196;-62
2024/01/26 00:21:08;;;;;;;2.25;1.25;;;6.70;99.90;;;;;;2070466;28;20188;-64
2024/01/26 00:22:08;;;;;;;1.10;1.00;;;6.70;99.90;;;;;;2070792;28;20201;-63
2024/01/26 00:23:09;;;;;;;1.40;1.30;;;6.60;99.90;;;;;;2070661;28;20666;-62
2024/01/26 00:24:10;;;;;;;2.13;1.30;;;6.70;99.90;;;;;;2070388;28;20255;-63
2024/01/26 00:25:11;;;;;;;1.45;1.00;;;6.70;99.90;;;;;;2070368;28;20798;-64
2024/01/26 00:26:13;;;;;;;0.97;0.90;;;6.60;99.90;;;;;;2054092;28;20187;-64
2024/01/26 00:27:14;;;;;;;1.00;0.85;;;6.60;99.90;;;;;;2045784;28;20196;-62
2024/01/26 00:28:14;;;;;;;1.03;0.93;;;6.70;99.90;;;;;;2054138;28;20639;-63
2024/01/26 00:29:15;;;;;;;0.77;0.77;;;6.70;99.90;;;;;;2062348;28;20226;-63
2024/01/26 00:30:16;;;;;;;0.83;0.80;;;6.70;99.90;;;;;;2070623;28;20326;-64
2024/01/26 00:31:18;;;;;;;1.00;0.90;;;6.70;99.90;;;;;;2067495;28;20539;-64
2024/01/26 00:32:18;;;;;;;1.73;1.30;;;6.70;99.90;;;;;;2070045;28;20281;-63
2024/01/26 00:33:19;;;;;;;2.03;1.00;;;6.80;99.90;;;;;;2070603;28;20217;-63
2024/01/26 00:34:19;;;;;;;0.93;0.90;;;6.80;99.90;;;;;;2062891;28;20179;-62
2024/01/26 00:35:20;;;;;;;1.37;0.90;;;6.80;99.90;;;;;;2063377;28;20230;-62
2024/01/26 00:36:21;;;;;;;1.07;0.97;;;6.80;99.90;;;;;;2070643;28;20625;-64
2024/01/26 00:37:21;;;;;;;0.93;0.83;;;6.80;99.90;;;;;;2062286;28;20252;-64
2024/01/26 00:38:22;;;;;;;0.80;0.80;;;6.80;99.90;;;;;;2061463;28;20226;-63
2024/01/26 00:39:23;;;;;;;1.67;1.23;;;6.80;99.90;;;;;;2071931;28;20705;-62
2024/01/26 00:40:23;;;;;;;1.43;1.00;;;6.80;99.90;;;;;;2070447;28;20323;-64
2024/01/26 00:41:24;;;;;;;0.80;0.80;;;6.80;99.90;;;;;;2062873;28;20222;-63
2024/01/26 00:42:25;;;;;;;1.13;1.03;;;6.70;99.90;;;;;;2061889;28;20225;-64
2024/01/26 00:43:26;;;;;;;1.10;1.00;;;6.80;99.90;;;;;;2062456;28;20258;-63
2024/01/26 00:44:27;;;;;;;0.82;0.82;;;6.80;99.90;;;;;;2062858;28;20237;-63
2024/01/26 00:45:27;;;;;;;1.50;1.00;;;6.80;99.90;;;;;;2070680;28;20221;-64
2024/01/26 00:46:28;;;;;;;1.00;0.90;;;6.80;99.90;;;;;;2070666;28;20225;-63
2024/01/26 00:47:29;;;;;;;0.90;0.80;;;6.80;99.90;;;;;;2062541;28;20250;-64
2024/01/26 00:48:30;;;;;;;0.70;0.70;;;6.80;99.90;;;;;;2061880;28;20218;-63
2024/01/26 00:49:31;;;;;;;0.80;0.77;;;6.80;99.90;;;;;;2061878;28;20234;-64
2024/01/26 00:50:32;;;;;;;0.87;0.83;;;6.80;99.90;;;;;;2061310;28;20744;-64
2024/01/26 00:51:33;;;;;;;0.67;0.67;;;6.90;99.90;;;;;;2060245;28;20281;-63
2024/01/26 00:52:34;;;;;;;0.70;0.70;;;6.90;99.90;;;;;;2061867;28;20363;-63
2024/01/26 00:53:35;;;;;;;0.70;0.60;;;6.90;99.90;;;;;;2070107;28;20609;-64
2024/01/26 00:54:35;;;;;;;1.43;0.70;;;6.90;99.90;;;;;;2070144;28;20542;-64
2024/01/26 00:55:36;;;;;;;1.20;0.80;;;6.90;99.90;;;;;;2071198;28;20221;-64
2024/01/26 00:56:37;;;;;;;0.80;0.80;;;6.90;99.90;;;;;;2069668;28;20221;-63
2024/01/26 00:57:39;;;;;;;0.70;0.70;;;6.90;99.90;;;;;;2070171;28;20217;-64
2024/01/26 00:58:40;;;;;;;0.70;0.70;;;6.90;99.90;;;;;;2061594;28;20221;-63
2024/01/26 00:59:41;;;;;;;0.70;0.70;;;6.90;99.90;;;;;;2062296;28;20246;-64
2024/01/26 01:00:42;;;;;;;0.80;0.80;;;7.00;99.90;;;;;;2070117;28;20213;-64
2024/01/26 01:01:42;;;;;;;0.83;0.83;;;7.00;99.90;;;;;;2069759;28;20657;-64
2024/01/26 01:02:43;;;;;;;0.80;0.80;;;7.10;99.90;;;;;;2070073;28;20274;-64
2024/01/26 01:03:44;;;;;;;0.80;0.80;;;7.00;99.90;;;;;;2069872;28;20224;-64
2024/01/26 01:04:44;;;;;;;3.80;1.00;;;7.00;99.90;;;;;;2070206;28;20219;-64
2024/01/26 01:05:45;;;;;;;2.20;1.00;;;7.10;99.90;;;;;;2071337;28;20303;-63
2024/01/26 01:06:46;;;;;;;1.23;1.03;;;7.10;99.90;;;;;;2070411;28;20220;-64
2024/01/26 01:07:47;;;;;;;1.60;1.07;;;7.00;99.90;;;;;;2061222;28;20222;-64
2024/01/26 01:08:48;;;;;;;1.58;1.00;;;7.00;99.90;;;;;;2061843;28;20800;-64
2024/01/26 01:09:49;;;;;;;2.20;1.10;;;7.10;99.90;;;;;;2071106;28;20276;-64
2024/01/26 01:10:50;;;;;;;1.00;0.90;;;7.10;99.90;;;;;;2070206;28;20248;-64
2024/01/26 01:11:52;;;;;;;1.70;1.17;;;7.10;99.90;;;;;;2061675;28;20214;-64
2024/01/26 01:12:52;;;;;;;1.83;1.30;;;7.20;99.90;;;;;;2062872;28;20222;-64
2024/01/26 01:13:53;;;;;;;1.60;1.43;;;7.20;99.90;;;;;;2067386;28;20724;-63
2024/01/26 01:14:53;;;;;;;2.37;1.27;;;7.20;99.90;;;;;;2070371;28;20701;-64
2024/01/26 01:15:54;;;;;;;1.10;1.00;;;7.20;99.90;;;;;;2070860;28;20253;-63
2024/01/26 01:16:56;;;;;;;1.00;0.95;;;7.20;99.90;;;;;;2070994;28;20719;-64
2024/01/26 01:17:57;;;;;;;1.55;0.80;;;7.20;99.90;;;;;;2070888;28;20644;-63
2024/01/26 01:18:58;;;;;;;0.80;0.80;;;7.10;99.90;;;;;;2070772;28;20434;-64
2024/01/26 01:19:59;;;;;;;1.33;1.00;;;7.10;99.90;;;;;;2070370;28;20316;-63
2024/01/26 01:21:00;;;;;;;0.70;0.63;;;7.20;99.90;;;;;;2070396;28;20661;-64
2024/01/26 01:22:00;;;;;;;2.13;0.70;;;7.10;99.90;;;;;;2070276;28;20300;-62
2024/01/26 01:23:01;;;;;;;0.83;0.63;;;7.10;99.90;;;;;;2069896;28;20254;-62
2024/01/26 01:24:02;;;;;;;0.60;0.60;;;7.10;99.90;;;;;;2059345;28;20594;-63
2024/01/26 01:25:07;;;;;;;0.67;0.67;;;7.10;99.90;;;;;;2061714;28;20190;-64
2024/01/26 01:26:08;;;;;;;0.70;0.70;;;7.20;99.90;;;;;;2069494;28;20949;-64
2024/01/26 01:27:09;;;;;;;0.50;0.50;;;7.00;99.90;;;;;;2062850;28;20213;-63
2024/01/26 01:28:09;;;;;;;0.83;0.77;;;7.00;99.90;;;;;;2063454;28;20192;-63
2024/01/26 01:29:10;;;;;;;0.70;0.70;;;6.90;99.90;;;;;;2071532;28;20661;-64
2024/01/26 01:30:11;;;;;;;0.60;0.60;;;7.00;99.90;;;;;;2072395;28;20200;-64
2024/01/26 01:31:12;;;;;;;0.87;0.53;;;6.90;99.90;;;;;;2063364;28;20186;-63
2024/01/26 01:32:13;;;;;;;0.50;0.50;;;6.90;99.90;;;;;;2063645;28;20190;-64
2024/01/26 01:33:14;;;;;;;0.70;0.70;;;6.80;99.90;;;;;;2067407;28;20243;-64
2024/01/26 01:34:15;;;;;;;0.80;0.60;;;6.70;99.90;;;;;;2058894;28;20926;-63
2024/01/26 01:35:16;;;;;;;1.17;0.57;;;6.70;99.90;;;;;;2062927;28;20209;-63
2024/01/26 01:36:16;;;;;;;0.80;0.75;;;6.60;99.90;;;;;;2063552;28;20186;-64
2024/01/26 01:37:17;;;;;;;0.73;0.67;;;6.60;99.90;;;;;;2065851;28;20236;-63
2024/01/26 01:38:18;;;;;;;0.60;0.60;;;6.50;99.90;;;;;;2072006;28;20207;-63
2024/01/26 01:39:19;;;;;;;0.67;0.67;;;6.50;99.90;;;;;;2072170;28;20193;-63
2024/01/26 01:40:19;;;;;;;0.63;0.57;;;6.60;99.90;;;;;;2071715;28;20187;-63
2024/01/26 01:41:20;;;;;;;0.50;0.50;;;6.50;99.90;;;;;;2071297;28;20556;-63
2024/01/26 01:42:21;;;;;;;0.50;0.50;;;6.60;99.90;;;;;;2063229;28;20237;-64
2024/01/26 01:43:21;;;;;;;0.60;0.50;;;6.60;99.90;;;;;;2063551;28;20230;-62
2024/01/26 01:44:22;;;;;;;2.30;1.00;;;6.60;99.90;;;;;;2071828;28;20232;-63
2024/01/26 01:45:23;;;;;;;0.80;0.70;;;6.60;99.90;;;;;;2064237;28;20229;-63
2024/01/26 01:46:23;;;;;;;1.43;0.50;;;6.50;99.90;;;;;;2055307;28;20244;-63
2024/01/26 01:47:24;;;;;;;0.60;0.60;;;6.50;99.90;;;;;;2062659;28;20324;-64
2024/01/26 01:48:26;;;;;;;0.80;0.70;;;6.50;99.90;;;;;;2071809;28;20304;-64
2024/01/26 01:49:26;;;;;;;0.50;0.50;;;6.50;99.90;;;;;;2071739;28;20223;-64
2024/01/26 01:50:27;;;;;;;0.60;0.60;;;6.40;99.90;;;;;;2071954;28;20428;-64
2024/01/26 01:51:31;;;;;;;0.80;0.60;;;6.40;99.90;;;;;;2063170;28;20281;-63
2024/01/26 01:52:41;;;;;;;0.88;0.70;;;6.40;99.90;;;;;;2059796;28;20218;-63
2024/01/26 01:53:43;;;;;;;0.60;0.60;;;6.40;99.90;;;;;;2071106;28;20282;-64
2024/01/26 01:54:44;;;;;;;0.70;0.70;;;6.40;99.90;;;;;;2071994;28;20209;-63
2024/01/26 01:55:45;;;;;;;1.42;0.57;;;6.30;99.90;;;;;;2071968;28;20599;-63
2024/01/26 01:56:49;;;;;;;0.77;0.60;;;6.30;99.90;;;;;;2062945;28;20225;-63
2024/01/26 01:57:54;;;;;;;1.25;0.60;;;6.30;99.90;;;;;;2064469;28;20601;-64
2024/01/26 01:58:58;;;;;;;1.45;0.70;;;6.30;99.90;;;;;;2072724;28;20677;-63
2024/01/26 01:59:59;;;;;;;0.93;0.70;;;6.30;99.90;;;;;;2069980;28;20240;-64
2024/01/26 02:01:00;;;;;;;1.60;0.60;;;6.30;99.90;;;;;;2071231;28;20248;-63
2024/01/26 02:02:01;;;;;;;0.83;0.77;;;6.30;99.90;;;;;;2069408;28;20259;-64
2024/01/26 02:03:02;;;;;;;1.63;0.70;;;6.30;99.90;;;;;;2061455;28;20607;-63
2024/01/26 02:04:04;;;;;;;0.87;0.80;;;6.30;99.90;;;;;;2053782;28;20194;-63
2024/01/26 02:05:05;;;;;;;1.00;0.70;;;6.30;99.90;;;;;;2061992;28;20277;-63
2024/01/26 02:06:06;;;;;;;0.60;0.60;;;6.30;99.90;;;;;;2062613;28;20197;-64
2024/01/26 02:07:06;;;;;;;0.90;0.80;;;6.30;99.90;;;;;;2054621;28;20225;-63
2024/01/26 02:08:07;;;;;;;1.73;0.70;;;6.30;99.90;;;;;;2061227;28;20253;-64
2024/01/26 02:09:08;;;;;;;0.90;0.73;;;6.30;99.90;;;;;;2060812;28;20270;-63
2024/01/26 02:10:12;;;;;;;0.77;0.77;;;6.30;99.90;;;;;;2061526;28;20922;-64
2024/01/26 02:11:13;;;;;;;1.00;0.88;;;6.30;99.90;;;;;;2071658;28;20181;-63
2024/01/26 02:12:13;;;;;;;1.00;0.90;;;6.40;99.90;;;;;;2069810;28;20542;-64
2024/01/26 02:13:14;;;;;;;0.90;0.80;;;6.40;99.90;;;;;;2062129;28;20234;-63
2024/01/26 02:14:15;;;;;;;1.30;1.00;;;6.40;99.90;;;;;;2061130;28;20670;-64
2024/01/26 02:15:15;;;;;;;2.30;0.80;;;6.40;99.90;;;;;;2070958;28;20188;-63
2024/01/26 02:16:16;;;;;;;1.50;1.20;;;6.40;99.90;;;;;;2066970;28;20182;-63
2024/01/26 02:17:17;;;;;;;1.43;1.00;;;6.40;99.90;;;;;;2070607;28;20188;-64
2024/01/26 02:18:17;;;;;;;0.80;0.80;;;6.40;99.90;;;;;;2070845;28;20195;-64
2024/01/26 02:19:18;;;;;;;1.30;1.00;;;6.40;99.90;;;;;;2069278;28;20190;-63
2024/01/26 02:20:19;;;;;;;2.23;1.40;;;6.50;99.90;;;;;;2070820;28;20259;-63
2024/01/26 02:21:19;;;;;;;1.33;0.90;;;6.40;99.90;;;;;;2070393;28;20209;-63
2024/01/26 02:22:20;;;;;;;1.00;0.90;;;6.40;99.90;;;;;;2070404;28;20226;-63
2024/01/26 02:23:22;;;;;;;1.63;1.40;;;6.40;99.90;;;;;;2070664;28;20300;-64
2024/01/26 02:24:22;;;;;;;1.60;1.45;;;6.40;99.90;;;;;;2071180;28;20236;-63
2024/01/26 02:25:23;;;;;;;3.47;1.23;;;6.40;99.90;;;;;;2061549;28;20636;-63
2024/01/26 02:26:24;;;;;;;1.77;1.03;;;6.40;99.90;;;;;;2050420;28;20234;-63
2024/01/26 02:27:24;;;;;;;2.73;1.23;;;6.30;99.90;;;;;;2062738;28;20764;-63
2024/01/26 02:28:25;;;;;;;1.20;1.10;;;6.30;99.90;;;;;;2071105;28;20248;-63
2024/01/26 02:29:26;;;;;;;1.33;1.03;;;6.40;99.90;;;;;;2061988;28;20230;-65
2024/01/26 02:30:26;;;;;;;1.63;1.20;;;6.40;99.90;;;;;;2061347;28;20237;-63
2024/01/26 02:31:27;;;;;;;3.27;1.50;;;6.50;99.90;;;;;;2070118;28;20221;-63
2024/01/26 02:32:28;;;;;;;1.20;1.10;;;6.50;99.90;;;;;;2067041;28;20296;-64
2024/01/26 02:33:28;;;;;;;1.37;1.00;;;6.50;99.90;;;;;;2070140;28;20724;-63
2024/01/26 02:34:29;;;;;;;2.70;1.30;;;6.50;99.90;;;;;;2071356;28;20661;-63
2024/01/26 02:35:30;;;;;;;1.47;1.27;;;6.60;99.90;;;;;;2062570;28;20301;-63
2024/01/26 02:36:34;;;;;;;1.23;1.13;;;6.60;99.90;;;;;;2063198;28;20257;-63
2024/01/26 02:37:34;;;;;;;1.20;1.10;;;6.60;99.90;;;;;;2062323;28;20230;-63
2024/01/26 02:38:35;;;;;;;1.20;1.10;;;6.50;99.90;;;;;;2061189;28;20226;-63
2024/01/26 02:39:37;;;;;;;1.23;1.13;;;6.60;99.90;;;;;;2070309;28;20225;-63
2024/01/26 02:40:38;;;;;;;1.30;1.10;;;6.60;99.90;;;;;;2061423;28;20284;-63
2024/01/26 02:41:40;;;;;;;1.53;1.10;;;6.60;99.90;;;;;;2062275;28;20284;-62
2024/01/26 02:42:40;;;;;;;3.88;1.58;;;6.70;99.90;;;;;;2060467;28;20237;-63
2024/01/26 02:43:41;;;;;;;2.50;1.50;;;6.70;99.90;;;;;;2061753;28;20697;-63
2024/01/26 02:44:42;;;;;;;1.53;1.30;;;6.70;99.90;;;;;;2071107;28;20308;-64
2024/01/26 02:45:46;;;;;;;2.20;1.40;;;6.70;99.90;;;;;;2070669;28;20221;-63
2024/01/26 02:46:47;;;;;;;1.45;1.27;;;6.70;99.90;;;;;;2062262;28;20222;-63
2024/01/26 02:47:47;;;;;;;1.40;1.20;;;6.80;99.90;;;;;;2063376;28;20257;-64
2024/01/26 02:48:48;;;;;;;1.30;1.17;;;6.70;99.90;;;;;;2071568;28;20230;-64
2024/01/26 02:49:49;;;;;;;1.47;1.37;;;6.80;99.90;;;;;;2070083;28;20225;-64
2024/01/26 02:50:49;;;;;;;1.93;1.47;;;6.80;99.90;;;;;;2070408;28;20213;-63
2024/01/26 02:51:50;;;;;;;1.43;1.30;;;6.90;99.90;;;;;;2062101;28;20798;-63
2024/01/26 02:52:51;;;;;;;1.60;1.30;;;6.90;99.90;;;;;;2062089;28;20234;-63
2024/01/26 02:53:51;;;;;;;1.43;1.13;;;6.90;99.90;;;;;;2061008;28;20228;-64
2024/01/26 02:54:52;;;;;;;1.20;1.10;;;6.90;99.90;;;;;;2060769;28;20731;-61
2024/01/26 02:55:53;;;;;;;1.30;1.00;;;7.00;99.90;;;;;;2070748;28;20753;-64
2024/01/26 02:56:54;;;;;;;1.83;1.40;;;7.00;99.90;;;;;;2070464;28;20267;-63
2024/01/26 02:57:54;;;;;;;1.93;1.00;;;7.10;99.90;;;;;;2070418;28;20232;-64
2024/01/26 02:58:55;;;;;;;1.67;1.33;;;7.00;99.90;;;;;;2070833;28;20331;-63
2024/01/26 02:59:56;;;;;;;1.43;1.17;;;7.10;99.90;;;;;;2070466;28;20701;-63
2024/01/26 03:00:56;;;;;;;4.07;1.13;;;7.00;99.90;;;;;;2069582;28;20256;-64
2024/01/26 03:01:57;;;;;;;1.00;0.90;;;7.00;99.90;;;;;;2067602;28;20236;-64
2024/01/26 03:02:58;;;;;;;1.43;1.10;;;7.00;99.90;;;;;;2069733;28;20228;-63
2024/01/26 03:03:59;;;;;;;1.30;1.20;;;7.10;99.90;;;;;;2068768;28;20225;-64
2024/01/26 03:05:00;;;;;;;3.90;1.20;;;7.10;99.90;;;;;;2067373;28;20689;-63
2024/01/26 03:06:00;;;;;;;1.20;1.10;;;7.10;99.90;;;;;;2069214;28;20286;-63
2024/01/26 03:07:01;;;;;;;1.30;1.10;;;7.10;99.90;;;;;;2070041;28;20204;-63
2024/01/26 03:08:02;;;;;;;1.53;1.30;;;7.10;99.90;;;;;;2069682;28;20190;-63
2024/01/26 03:09:03;;;;;;;1.30;1.20;;;7.10;99.90;;;;;;2066828;28;20192;-62
2024/01/26 03:10:04;;;;;;;2.37;1.60;;;7.00;99.90;;;;;;2060020;28;20589;-63
2024/01/26 03:11:06;;;;;;;1.08;0.93;;;7.00;99.90;;;;;;2052622;28;20266;-64
2024/01/26 03:12:07;;;;;;;1.98;1.20;;;7.00;99.90;;;;;;2060694;28;20182;-64
2024/01/26 03:13:07;;;;;;;1.83;1.10;;;7.00;99.90;;;;;;2069424;28;20201;-63
2024/01/26 03:14:09;;;;;;;1.80;0.90;;;7.00;99.90;;;;;;2071455;28;20188;-63
2024/01/26 03:15:09;;;;;;;1.23;1.13;;;7.00;99.90;;;;;;2069515;28;20192;-64
2024/01/26 03:16:11;;;;;;;1.50;1.30;;;7.00;99.90;;;;;;2069950;28;20665;-63
2024/01/26 03:17:11;;;;;;;1.45;1.23;;;7.00;99.90;;;;;;2069969;28;20192;-63
2024/01/26 03:18:12;;;;;;;1.40;1.17;;;7.00;99.90;;;;;;2070746;28;20219;-63
2024/01/26 03:19:13;;;;;;;1.47;1.10;;;7.00;99.90;;;;;;2069547;28;20698;-64
2024/01/26 03:20:14;;;;;;;3.78;1.23;;;7.10;99.90;;;;;;2062228;28;20645;-64
2024/01/26 03:21:15;;;;;;;1.15;1.05;;;7.10;99.90;;;;;;2060901;28;20248;-64
2024/01/26 03:22:15;;;;;;;1.10;0.83;;;7.20;99.90;;;;;;2069757;28;20213;-63
2024/01/26 03:23:16;;;;;;;1.00;0.90;;;7.20;99.90;;;;;;2061592;28;20209;-64
2024/01/26 03:24:17;;;;;;;1.10;0.97;;;7.20;99.90;;;;;;2061580;28;20184;-62
2024/01/26 03:25:18;;;;;;;1.10;1.00;;;7.20;99.90;;;;;;2069869;28;20192;-63
2024/01/26 03:26:19;;;;;;;1.57;1.23;;;7.10;99.90;;;;;;2071004;28;20193;-64
2024/01/26 03:27:19;;;;;;;4.67;1.80;;;7.10;99.90;;;;;;2070299;28;20290;-63
2024/01/26 03:28:20;;;;;;;3.47;1.87;;;7.00;99.90;;;;;;2061096;28;20210;-64
2024/01/26 03:29:21;;;;;;;5.23;2.30;;;7.00;99.90;;;;;;2061450;28;20718;-63
2024/01/26 03:30:22;;;;;;;12.30;3.53;;;7.00;99.90;;;;;;2070321;28;20236;-64
2024/01/26 03:31:22;;;;;;;9.00;3.20;;;6.90;99.90;;;;;;2070762;28;20224;-63
2024/01/26 03:32:24;;;;;;;5.73;2.60;;;6.90;99.90;;;;;;2062233;28;20248;-62
2024/01/26 03:33:25;;;;;;;4.63;2.28;;;7.00;99.90;;;;;;2060953;28;20294;-63
2024/01/26 03:34:26;;;;;;;7.90;2.20;;;7.00;99.90;;;;;;2060254;28;20230;-63
2024/01/26 03:35:27;;;;;;;6.03;2.17;;;7.00;99.90;;;;;;2061629;28;20252;-64
2024/01/26 03:36:27;;;;;;;4.97;2.13;;;6.90;99.90;;;;;;2068194;28;20229;-63
2024/01/26 03:37:28;;;;;;;4.87;2.03;;;6.90;99.90;;;;;;2071646;28;20284;-64
2024/01/26 03:38:29;;;;;;;4.30;1.73;;;6.90;99.90;;;;;;2068927;28;20229;-64
2024/01/26 03:39:29;;;;;;;3.73;1.87;;;6.90;99.90;;;;;;2070149;28;20229;-63
2024/01/26 03:40:30;;;;;;;4.53;2.57;;;6.80;99.90;;;;;;2069797;28;20700;-63
2024/01/26 03:41:31;;;;;;;4.00;1.77;;;6.90;99.90;;;;;;2069019;28;20340;-64
2024/01/26 03:42:31;;;;;;;5.83;2.70;;;6.90;99.90;;;;;;2070593;28;20240;-63
2024/01/26 03:43:32;;;;;;;2.77;1.73;;;6.90;99.90;;;;;;2070696;28;20236;-63
2024/01/26 03:44:33;;;;;;;1.20;1.10;;;7.00;99.90;;;;;;2070557;28;20233;-64
2024/01/26 03:45:33;;;;;;;1.40;1.30;;;7.00;99.90;;;;;;2070414;28;20384;-63
2024/01/26 03:46:34;;;;;;;3.37;1.30;;;6.90;99.90;;;;;;2061215;28;20236;-63
2024/01/26 03:47:35;;;;;;;2.43;1.10;;;6.90;99.90;;;;;;2054252;28;20253;-64
2024/01/26 03:48:37;;;;;;;1.63;1.23;;;7.00;99.90;;;;;;2061916;28;20310;-62
2024/01/26 03:49:45;;;;;;;1.27;0.85;;;6.90;99.90;;;;;;2068371;28;20857;-62
2024/01/26 03:50:46;;;;;;;1.98;0.90;;;6.90;99.90;;;;;;2062167;28;20285;-62
2024/01/26 03:51:46;;;;;;;1.37;1.03;;;6.90;99.90;;;;;;2062970;28;20277;-64
2024/01/26 03:52:47;;;;;;;1.67;0.90;;;6.90;99.90;;;;;;2069779;28;20764;-64
2024/01/26 03:53:47;;;;;;;1.37;1.27;;;6.90;99.90;;;;;;2069547;28;20224;-63
2024/01/26 03:54:48;;;;;;;1.10;0.97;;;6.90;99.90;;;;;;2069678;28;20697;-63
2024/01/26 03:55:49;;;;;;;2.57;1.07;;;6.90;99.90;;;;;;2069646;28;20589;-63
2024/01/26 03:56:49;;;;;;;1.63;1.33;;;6.90;99.90;;;;;;2071598;28;20224;-62
2024/01/26 03:57:50;;;;;;;2.23;1.47;;;6.90;99.90;;;;;;2070014;28;20233;-63
2024/01/26 03:58:52;;;;;;;1.30;1.20;;;6.90;99.90;;;;;;2070179;28;20771;-64
2024/01/26 03:59:54;;;;;;;4.40;1.45;;;6.90;99.90;;;;;;2071453;28;20239;-64
2024/01/26 04:00:54;;;;;;;5.10;2.15;;;6.90;99.90;;;;;;2068442;28;20224;-63
2024/01/26 04:01:55;;;;;;;2.67;1.50;;;6.90;99.90;;;;;;2062696;28;20222;-64
2024/01/26 04:02:56;;;;;;;1.60;1.10;;;6.90;99.90;;;;;;2053149;28;20319;-62
2024/01/26 04:03:56;;;;;;;1.90;1.07;;;6.90;99.90;;;;;;2062792;28;20749;-63
2024/01/26 04:04:57;;;;;;;1.80;1.33;;;7.00;99.90;;;;;;2067401;28;20237;-63
2024/01/26 04:05:59;;;;;;;2.40;1.20;;;6.90;99.90;;;;;;2071309;28;20229;-63
2024/01/26 04:06:59;;;;;;;1.95;1.00;;;7.00;99.90;;;;;;2061541;28;20233;-64
2024/01/26 04:08:00;;;;;;;2.43;1.00;;;7.00;99.90;;;;;;2061681;28;20316;-64
2024/01/26 04:09:01;;;;;;;2.23;1.47;;;7.00;99.90;;;;;;2060485;28;20249;-63
2024/01/26 04:10:02;;;;;;;1.67;0.80;;;7.10;99.90;;;;;;2061098;28;20217;-63
2024/01/26 04:11:03;;;;;;;3.50;1.93;;;7.10;99.90;;;;;;2063852;28;20244;-63
2024/01/26 04:12:04;;;;;;;2.30;1.30;;;7.20;99.90;;;;;;2061290;28;20277;-64
2024/01/26 04:13:05;;;;;;;1.73;0.98;;;7.20;99.90;;;;;;2061087;28;20273;-63
2024/01/26 04:14:06;;;;;;;1.00;0.80;;;7.20;99.90;;;;;;2069658;28;20657;-62
2024/01/26 04:15:07;;;;;;;1.53;1.23;;;7.20;99.90;;;;;;2069924;28;20185;-63
2024/01/26 04:16:07;;;;;;;1.00;0.90;;;7.20;99.90;;;;;;2070167;28;20558;-63
2024/01/26 04:17:08;;;;;;;1.57;1.00;;;7.20;99.90;;;;;;2068429;28;20445;-63
2024/01/26 04:18:09;;;;;;;1.13;0.90;;;7.20;99.90;;;;;;2070766;28;20189;-63
2024/01/26 04:19:09;;;;;;;1.63;1.20;;;7.20;99.90;;;;;;2069786;28;20186;-63
2024/01/26 04:20:10;;;;;;;1.50;1.07;;;7.20;99.90;;;;;;2070967;28;20193;-63
2024/01/26 04:21:11;;;;;;;1.60;1.00;;;7.30;99.90;;;;;;2069331;28;20332;-63
2024/01/26 04:22:12;;;;;;;1.80;1.50;;;7.30;99.90;;;;;;2061387;28;20200;-63
2024/01/26 04:23:12;;;;;;;2.13;1.10;;;7.30;99.90;;;;;;2054826;28;20190;-62
2024/01/26 04:24:13;;;;;;;1.13;1.03;;;7.30;99.90;;;;;;2058338;28;20193;-63
2024/01/26 04:25:14;;;;;;;1.23;0.90;;;7.30;99.90;;;;;;2059375;28;20220;-64
2024/01/26 04:26:15;;;;;;;1.77;1.00;;;7.30;99.90;;;;;;2056160;28;20200;-63
2024/01/26 04:27:15;;;;;;;1.95;1.00;;;7.30;99.90;;;;;;2058534;28;20195;-64
2024/01/26 04:28:16;;;;;;;2.50;1.20;;;7.20;99.90;;;;;;2052256;28;20631;-62
2024/01/26 04:29:17;;;;;;;1.23;1.10;;;7.20;99.90;;;;;;2057809;28;20190;-64
2024/01/26 04:30:18;;;;;;;2.63;1.27;;;7.20;99.90;;;;;;2068422;28;20700;-63
2024/01/26 04:31:22;;;;;;;2.40;1.60;;;7.20;99.90;;;;;;2066415;28;20186;-64
2024/01/26 04:32:23;;;;;;;3.65;1.42;;;7.30;99.90;;;;;;2060482;28;20233;-63
2024/01/26 04:33:24;;;;;;;3.28;1.70;;;7.20;99.90;;;;;;2056807;28;20241;-63
2024/01/26 04:34:25;;;;;;;4.87;1.90;;;7.30;99.90;;;;;;2069557;28;20739;-64
2024/01/26 04:35:25;;;;;;;2.10;1.13;;;7.20;99.90;;;;;;2060018;28;20308;-63
2024/01/26 04:36:27;;;;;;;2.90;1.20;;;7.20;99.90;;;;;;2060587;28;20696;-63
2024/01/26 04:37:28;;;;;;;1.77;1.52;;;7.20;99.90;;;;;;2061905;28;20232;-63
2024/01/26 04:38:29;;;;;;;1.47;1.00;;;7.30;99.90;;;;;;2060939;28;20237;-62
2024/01/26 04:39:30;;;;;;;1.17;1.02;;;7.20;99.90;;;;;;2065251;28;20227;-63
2024/01/26 04:40:31;;;;;;;1.10;0.90;;;7.20;99.90;;;;;;2069439;28;20232;-63
2024/01/26 04:41:32;;;;;;;1.13;0.90;;;7.10;99.90;;;;;;2069554;28;20225;-64
2024/01/26 04:42:36;;;;;;;1.67;1.00;;;7.10;99.90;;;;;;2070482;28;20228;-62
2024/01/26 04:43:37;;;;;;;1.80;1.00;;;7.10;99.90;;;;;;2068963;28;20312;-64
2024/01/26 04:44:37;;;;;;;1.47;1.00;;;7.10;99.90;;;;;;2059501;28;20279;-63
2024/01/26 04:45:38;;;;;;;1.40;1.00;;;7.10;99.90;;;;;;2060338;28;20634;-63
2024/01/26 04:46:39;;;;;;;1.30;1.00;;;7.10;99.90;;;;;;2069505;28;20308;-62
2024/01/26 04:47:40;;;;;;;0.70;0.70;;;7.10;99.90;;;;;;2069099;28;20243;-63
2024/01/26 04:48:41;;;;;;;0.83;0.80;;;7.10;99.90;;;;;;2068916;28;20213;-63
2024/01/26 04:49:42;;;;;;;0.80;0.80;;;7.10;99.90;;;;;;2069571;28;20477;-64
2024/01/26 04:50:42;;;;;;;0.70;0.70;;;7.10;99.90;;;;;;2068420;28;20220;-62
2024/01/26 04:51:43;;;;;;;0.73;0.73;;;7.10;99.90;;;;;;2069913;28;20291;-63
2024/01/26 04:52:44;;;;;;;0.70;0.70;;;7.10;99.90;;;;;;2069312;28;20218;-63
2024/01/26 04:53:44;;;;;;;1.13;1.03;;;7.10;99.90;;;;;;2069051;28;20227;-63
2024/01/26 04:54:46;;;;;;;1.20;0.90;;;7.00;99.90;;;;;;2070188;28;21053;-63
2024/01/26 04:55:47;;;;;;;2.55;1.30;;;7.00;99.90;;;;;;2061164;28;20222;-63
2024/01/26 04:56:48;;;;;;;0.93;0.70;;;7.00;99.90;;;;;;2056844;28;20218;-63
2024/01/26 04:57:49;;;;;;;0.80;0.80;;;6.90;99.90;;;;;;2071181;28;20214;-63
2024/01/26 04:58:50;;;;;;;1.33;0.97;;;6.90;99.90;;;;;;2069480;28;20560;-64
2024/01/26 04:59:50;;;;;;;0.87;0.83;;;6.80;99.90;;;;;;2068472;28;20235;-64
2024/01/26 05:00:52;;;;;;;1.53;0.60;;;6.80;99.90;;;;;;2069584;28;20740;-63
2024/01/26 05:01:54;;;;;;;2.33;1.00;;;6.80;99.90;;;;;;2067571;28;20225;-63
2024/01/26 05:02:54;;;;;;;1.52;0.60;;;6.80;99.90;;;;;;2060506;28;20235;-64
2024/01/26 05:03:55;;;;;;;1.00;0.73;;;6.80;99.90;;;;;;2060248;28;20273;-63
2024/01/26 05:04:55;;;;;;;0.67;0.67;;;6.80;99.90;;;;;;2069248;28;20245;-63
2024/01/26 05:05:56;;;;;;;0.60;0.60;;;6.80;99.90;;;;;;2069312;28;20315;-64
2024/01/26 05:06:57;;;;;;;3.90;1.13;;;6.80;99.90;;;;;;2069449;28;20660;-64
2024/01/26 05:07:58;;;;;;;0.90;0.70;;;6.80;99.90;;;;;;2073407;28;20220;-63
2024/01/26 05:08:58;;;;;;;1.47;0.90;;;6.80;99.90;;;;;;2069297;28;20367;-64
2024/01/26 05:10:00;;;;;;;0.80;0.80;;;6.80;99.90;;;;;;2061528;28;20313;-63
2024/01/26 05:11:01;;;;;;;1.40;1.10;;;6.70;99.90;;;;;;2050104;28;20253;-62
2024/01/26 05:12:01;;;;;;;2.00;0.83;;;6.70;99.90;;;;;;2059568;28;20588;-64
2024/01/26 05:13:02;;;;;;;0.90;0.73;;;6.80;99.90;;;;;;2069576;28;20185;-64
2024/01/26 05:14:03;;;;;;;0.80;0.80;;;6.80;99.90;;;;;;2070226;28;20196;-63
2024/01/26 05:15:07;;;;;;;0.90;0.77;;;6.80;99.90;;;;;;2061339;28;20715;-63
2024/01/26 05:16:08;;;;;;;0.70;0.70;;;6.80;99.90;;;;;;2053576;28;20216;-64
2024/01/26 05:17:09;;;;;;;1.93;0.93;;;6.70;99.90;;;;;;2060708;28;20202;-64
2024/01/26 05:18:10;;;;;;;1.20;1.00;;;6.80;99.90;;;;;;2067389;28;20186;-64
2024/01/26 05:19:11;;;;;;;0.80;0.80;;;6.80;99.90;;;;;;2069346;28;20189;-63
2024/01/26 05:20:11;;;;;;;3.03;0.90;;;6.80;99.90;;;;;;2069592;28;20204;-64
2024/01/26 05:21:12;;;;;;;2.10;0.80;;;6.80;99.90;;;;;;2060556;28;20597;-64
2024/01/26 05:22:13;;;;;;;1.00;0.90;;;6.90;99.90;;;;;;2061184;28;20212;-64